Terminal Aerodrome Forecast
Issued by NWS Corpus Christi, TX

Home | Current Version | Previous Version | Text Only | Print | Product List | Glossary On
Versions: 1 2 3 4 5 6 7 8 9 10 11 12 13 14 15 16 17
547
FTUS44 KCRP 191720
TAFCRP
TAF
KCRP 191720Z 1918/2018 07018G26KT P6SM BKN060
     FM192200 08013KT P6SM SCT050
     FM200400 05007KT P6SM FEW050 SCT250
     FM201400 08015G21KT P6SM SCT025 OVC150
     FM201700 11020G27KT P6SM OVC028=

USA.gov is the U.S. government's official web portal to all federal, state and local government web resources and services.